sensor_id;sensor_type;location;lat;lon;timestamp;P1;durP1;ratioP1;P2;durP2;ratioP2
22673;SDS011;11504;43.334;21.918;2024-02-21T00:03:23;77.0;;;73.0;;
22673;SDS011;11504;43.334;21.918;2024-02-21T00:07:59;78.0;;;74.0;;
22673;SDS011;11504;43.334;21.918;2024-02-21T00:12:37;78.0;;;74.0;;
22673;SDS011;11504;43.334;21.918;2024-02-21T00:17:13;94.0;;;88.0;;
22673;SDS011;11504;43.334;21.918;2024-02-21T00:21:50;94.0;;;88.0;;
22673;SDS011;11504;43.334;21.918;2024-02-21T00:26:26;110.0;;;103.0;;
22673;SDS011;11504;43.334;21.918;2024-02-21T00:31:02;110.0;;;103.0;;
22673;SDS011;11504;43.334;21.918;2024-02-21T00:35:39;110.0;;;103.0;;
22673;SDS011;11504;43.334;21.918;2024-02-21T00:40:15;118.0;;;109.0;;
22673;SDS011;11504;43.334;21.918;2024-02-21T00:44:52;118.0;;;109.0;;
22673;SDS011;11504;43.334;21.918;2024-02-21T00:49:28;125.0;;;115.0;;
22673;SDS011;11504;43.334;21.918;2024-02-21T00:54:05;125.0;;;115.0;;
22673;SDS011;11504;43.334;21.918;2024-02-21T00:58:41;125.0;;;112.0;;
22673;SDS011;11504;43.334;21.918;2024-02-21T01:03:17;125.0;;;112.0;;
22673;SDS011;11504;43.334;21.918;2024-02-21T01:07:53;125.0;;;109.0;;
22673;SDS011;11504;43.334;21.918;2024-02-21T01:12:30;125.0;;;109.0;;
22673;SDS011;11504;43.334;21.918;2024-02-21T01:17:06;124.0;;;110.0;;
22673;SDS011;11504;43.334;21.918;2024-02-21T01:21:43;124.0;;;110.0;;
22673;SDS011;11504;43.334;21.918;2024-02-21T01:26:19;124.0;;;112.0;;
22673;SDS011;11504;43.334;21.918;2024-02-21T01:30:55;124.0;;;112.0;;
22673;SDS011;11504;43.334;21.918;2024-02-21T01:35:32;124.0;;;112.0;;
22673;SDS011;11504;43.334;21.918;2024-02-21T01:40:11;124.0;;;112.0;;
22673;SDS011;11504;43.334;21.918;2024-02-21T01:44:50;124.0;;;112.0;;
22673;SDS011;11504;43.334;21.918;2024-02-21T01:58:48;104.0;;;93.0;;
22673;SDS011;11504;43.334;21.918;2024-02-21T02:03:25;104.0;;;93.0;;
22673;SDS011;11504;43.334;21.918;2024-02-21T02:08:02;104.0;;;93.0;;
22673;SDS011;11504;43.334;21.918;2024-02-21T02:12:39;104.0;;;93.0;;
22673;SDS011;11504;43.334;21.918;2024-02-21T02:17:15;95.0;;;84.0;;
22673;SDS011;11504;43.334;21.918;2024-02-21T02:22:20;95.0;;;84.0;;
22673;SDS011;11504;43.334;21.918;2024-02-21T02:27:04;86.0;;;75.0;;
22673;SDS011;11504;43.334;21.918;2024-02-21T02:31:40;86.0;;;75.0;;
22673;SDS011;11504;43.334;21.918;2024-02-21T02:36:17;81.0;;;73.0;;
22673;SDS011;11504;43.334;21.918;2024-02-21T02:40:53;81.0;;;73.0;;
22673;SDS011;11504;43.334;21.918;2024-02-21T02:45:30;81.0;;;73.0;;
22673;SDS011;11504;43.334;21.918;2024-02-21T02:50:08;76.0;;;71.0;;
22673;SDS011;11504;43.334;21.918;2024-02-21T02:54:45;76.0;;;71.0;;
22673;SDS011;11504;43.334;21.918;2024-02-21T02:59:21;78.0;;;68.0;;
22673;SDS011;11504;43.334;21.918;2024-02-21T03:03:57;78.0;;;68.0;;
22673;SDS011;11504;43.334;21.918;2024-02-21T03:08:33;80.0;;;64.0;;
22673;SDS011;11504;43.334;21.918;2024-02-21T03:13:09;80.0;;;64.0;;
22673;SDS011;11504;43.334;21.918;2024-02-21T03:17:46;74.0;;;60.0;;
22673;SDS011;11504;43.334;21.918;2024-02-21T03:22:22;74.0;;;60.0;;
22673;SDS011;11504;43.334;21.918;2024-02-21T03:26:59;68.0;;;57.0;;
22673;SDS011;11504;43.334;21.918;2024-02-21T03:31:35;68.0;;;57.0;;
22673;SDS011;11504;43.334;21.918;2024-02-21T03:36:14;66.0;;;57.0;;
22673;SDS011;11504;43.334;21.918;2024-02-21T03:40:50;66.0;;;57.0;;
22673;SDS011;11504;43.334;21.918;2024-02-21T03:45:27;66.0;;;57.0;;
22673;SDS011;11504;43.334;21.918;2024-02-21T03:50:05;64.0;;;57.0;;
22673;SDS011;11504;43.334;21.918;2024-02-21T03:54:44;64.0;;;57.0;;
22673;SDS011;11504;43.334;21.918;2024-02-21T03:59:21;63.0;;;56.0;;
22673;SDS011;11504;43.334;21.918;2024-02-21T04:03:58;63.0;;;56.0;;
22673;SDS011;11504;43.334;21.918;2024-02-21T04:08:35;62.0;;;54.0;;
22673;SDS011;11504;43.334;21.918;2024-02-21T04:13:11;62.0;;;54.0;;
22673;SDS011;11504;43.334;21.918;2024-02-21T04:17:47;60.0;;;53.0;;
22673;SDS011;11504;43.334;21.918;2024-02-21T04:22:23;60.0;;;53.0;;
22673;SDS011;11504;43.334;21.918;2024-02-21T04:26:59;57.0;;;52.0;;
22673;SDS011;11504;43.334;21.918;2024-02-21T04:31:35;57.0;;;52.0;;
22673;SDS011;11504;43.334;21.918;2024-02-21T04:36:12;64.0;;;56.0;;
22673;SDS011;11504;43.334;21.918;2024-02-21T04:40:48;64.0;;;56.0;;
22673;SDS011;11504;43.334;21.918;2024-02-21T04:45:24;64.0;;;56.0;;
22673;SDS011;11504;43.334;21.918;2024-02-21T04:50:00;70.0;;;59.0;;
22673;SDS011;11504;43.334;21.918;2024-02-21T04:54:37;70.0;;;59.0;;
22673;SDS011;11504;43.334;21.918;2024-02-21T04:59:13;74.0;;;62.0;;
22673;SDS011;11504;43.334;21.918;2024-02-21T05:03:49;74.0;;;62.0;;
22673;SDS011;11504;43.334;21.918;2024-02-21T05:08:25;77.0;;;66.0;;
22673;SDS011;11504;43.334;21.918;2024-02-21T05:13:01;77.0;;;66.0;;
22673;SDS011;11504;43.334;21.918;2024-02-21T05:17:38;64.0;;;56.0;;
22673;SDS011;11504;43.334;21.918;2024-02-21T05:22:16;64.0;;;56.0;;
22673;SDS011;11504;43.334;21.918;2024-02-21T05:26:54;51.0;;;45.0;;
22673;SDS011;11504;43.334;21.918;2024-02-21T05:31:56;51.0;;;45.0;;
22673;SDS011;11504;43.334;21.918;2024-02-21T05:36:33;52.0;;;46.0;;
22673;SDS011;11504;43.334;21.918;2024-02-21T05:41:09;52.0;;;46.0;;
22673;SDS011;11504;43.334;21.918;2024-02-21T05:45:45;52.0;;;46.0;;
22673;SDS011;11504;43.334;21.918;2024-02-21T05:50:21;54.0;;;48.0;;
22673;SDS011;11504;43.334;21.918;2024-02-21T05:54:57;54.0;;;48.0;;
22673;SDS011;11504;43.334;21.918;2024-02-21T05:59:33;60.0;;;50.0;;
22673;SDS011;11504;43.334;21.918;2024-02-21T06:04:09;60.0;;;50.0;;
22673;SDS011;11504;43.334;21.918;2024-02-21T06:08:45;65.0;;;53.0;;
22673;SDS011;11504;43.334;21.918;2024-02-21T06:13:23;65.0;;;53.0;;
22673;SDS011;11504;43.334;21.918;2024-02-21T06:17:59;68.0;;;54.0;;
22673;SDS011;11504;43.334;21.918;2024-02-21T06:22:35;68.0;;;54.0;;
22673;SDS011;11504;43.334;21.918;2024-02-21T06:27:12;70.0;;;56.0;;
22673;SDS011;11504;43.334;21.918;2024-02-21T06:31:48;70.0;;;56.0;;
22673;SDS011;11504;43.334;21.918;2024-02-21T06:36:25;68.0;;;56.0;;
22673;SDS011;11504;43.334;21.918;2024-02-21T06:41:01;68.0;;;56.0;;
22673;SDS011;11504;43.334;21.918;2024-02-21T06:45:38;68.0;;;56.0;;
22673;SDS011;11504;43.334;21.918;2024-02-21T06:50:15;67.0;;;56.0;;
22673;SDS011;11504;43.334;21.918;2024-02-21T06:54:51;67.0;;;56.0;;
22673;SDS011;11504;43.334;21.918;2024-02-21T06:59:28;72.0;;;60.0;;
22673;SDS011;11504;43.334;21.918;2024-02-21T07:04:04;72.0;;;60.0;;
22673;SDS011;11504;43.334;21.918;2024-02-21T07:08:41;76.0;;;63.0;;
22673;SDS011;11504;43.334;21.918;2024-02-21T07:13:17;76.0;;;63.0;;
22673;SDS011;11504;43.334;21.918;2024-02-21T07:17:54;74.0;;;62.0;;
22673;SDS011;11504;43.334;21.918;2024-02-21T07:22:30;74.0;;;62.0;;
22673;SDS011;11504;43.334;21.918;2024-02-21T07:27:06;72.0;;;61.0;;
22673;SDS011;11504;43.334;21.918;2024-02-21T07:31:44;72.0;;;61.0;;
22673;SDS011;11504;43.334;21.918;2024-02-21T07:36:29;68.0;;;58.0;;
22673;SDS011;11504;43.334;21.918;2024-02-21T07:41:06;68.0;;;58.0;;
22673;SDS011;11504;43.334;21.918;2024-02-21T07:45:42;68.0;;;58.0;;
22673;SDS011;11504;43.334;21.918;2024-02-21T07:50:18;63.0;;;56.0;;
22673;SDS011;11504;43.334;21.918;2024-02-21T07:54:54;63.0;;;56.0;;
22673;SDS011;11504;43.334;21.918;2024-02-21T07:59:31;62.0;;;54.0;;
22673;SDS011;11504;43.334;21.918;2024-02-21T08:04:07;62.0;;;54.0;;
22673;SDS011;11504;43.334;21.918;2024-02-21T08:08:43;61.0;;;51.0;;
22673;SDS011;11504;43.334;21.918;2024-02-21T08:13:18;61.0;;;51.0;;
22673;SDS011;11504;43.334;21.918;2024-02-21T08:17:55;60.0;;;52.0;;
22673;SDS011;11504;43.334;21.918;2024-02-21T08:22:31;60.0;;;52.0;;
22673;SDS011;11504;43.334;21.918;2024-02-21T08:27:07;60.0;;;53.0;;
22673;SDS011;11504;43.334;21.918;2024-02-21T08:31:43;60.0;;;53.0;;
22673;SDS011;11504;43.334;21.918;2024-02-21T08:36:19;56.0;;;50.0;;
22673;SDS011;11504;43.334;21.918;2024-02-21T08:40:56;56.0;;;50.0;;
22673;SDS011;11504;43.334;21.918;2024-02-21T08:45:32;56.0;;;50.0;;
22673;SDS011;11504;43.334;21.918;2024-02-21T08:50:10;53.0;;;46.0;;
22673;SDS011;11504;43.334;21.918;2024-02-21T08:54:46;53.0;;;46.0;;
22673;SDS011;11504;43.334;21.918;2024-02-21T08:59:22;61.0;;;55.0;;
22673;SDS011;11504;43.334;21.918;2024-02-21T09:03:59;61.0;;;55.0;;
22673;SDS011;11504;43.334;21.918;2024-02-21T09:08:35;69.0;;;64.0;;
22673;SDS011;11504;43.334;21.918;2024-02-21T09:13:11;69.0;;;64.0;;
22673;SDS011;11504;43.334;21.918;2024-02-21T09:17:47;74.0;;;67.0;;
22673;SDS011;11504;43.334;21.918;2024-02-21T09:22:23;74.0;;;67.0;;
22673;SDS011;11504;43.334;21.918;2024-02-21T09:27:03;79.0;;;70.0;;
22673;SDS011;11504;43.334;21.918;2024-02-21T09:31:39;79.0;;;70.0;;
22673;SDS011;11504;43.334;21.918;2024-02-21T09:36:15;78.0;;;67.0;;
22673;SDS011;11504;43.334;21.918;2024-02-21T09:41:04;78.0;;;67.0;;
22673;SDS011;11504;43.334;21.918;2024-02-21T09:45:55;78.0;;;67.0;;
22673;SDS011;11504;43.334;21.918;2024-02-21T09:50:39;78.0;;;64.0;;
22673;SDS011;11504;43.334;21.918;2024-02-21T09:55:20;78.0;;;64.0;;
22673;SDS011;11504;43.334;21.918;2024-02-21T10:00:01;77.0;;;66.0;;
22673;SDS011;11504;43.334;21.918;2024-02-21T10:04:40;77.0;;;66.0;;
22673;SDS011;11504;43.334;21.918;2024-02-21T10:09:22;76.0;;;67.0;;
22673;SDS011;11504;43.334;21.918;2024-02-21T10:14:04;76.0;;;67.0;;
22673;SDS011;11504;43.334;21.918;2024-02-21T10:18:42;76.0;;;68.0;;
22673;SDS011;11504;43.334;21.918;2024-02-21T10:23:19;76.0;;;68.0;;
22673;SDS011;11504;43.334;21.918;2024-02-21T10:27:55;77.0;;;68.0;;
22673;SDS011;11504;43.334;21.918;2024-02-21T10:32:32;77.0;;;68.0;;
22673;SDS011;11504;43.334;21.918;2024-02-21T10:37:11;70.0;;;62.0;;
22673;SDS011;11504;43.334;21.918;2024-02-21T10:41:48;70.0;;;62.0;;
22673;SDS011;11504;43.334;21.918;2024-02-21T10:46:24;63.0;;;57.0;;
22673;SDS011;11504;43.334;21.918;2024-02-21T10:51:14;63.0;;;57.0;;
22673;SDS011;11504;43.334;21.918;2024-02-21T10:56:13;63.0;;;57.0;;
22673;SDS011;11504;43.334;21.918;2024-02-21T11:00:57;48.0;;;44.0;;
22673;SDS011;11504;43.334;21.918;2024-02-21T11:05:34;48.0;;;44.0;;
22673;SDS011;11504;43.334;21.918;2024-02-21T11:10:24;33.0;;;31.0;;
22673;SDS011;11504;43.334;21.918;2024-02-21T11:15:05;33.0;;;31.0;;
22673;SDS011;11504;43.334;21.918;2024-02-21T11:19:42;29.0;;;27.0;;
22673;SDS011;11504;43.334;21.918;2024-02-21T11:24:28;29.0;;;27.0;;
22673;SDS011;11504;43.334;21.918;2024-02-21T11:29:08;25.0;;;23.0;;
22673;SDS011;11504;43.334;21.918;2024-02-21T11:33:47;25.0;;;23.0;;
22673;SDS011;11504;43.334;21.918;2024-02-21T11:38:23;26.0;;;24.0;;
22673;SDS011;11504;43.334;21.918;2024-02-21T11:43:00;26.0;;;24.0;;
22673;SDS011;11504;43.334;21.918;2024-02-21T11:47:36;27.0;;;24.0;;
22673;SDS011;11504;43.334;21.918;2024-02-21T11:52:13;27.0;;;24.0;;
22673;SDS011;11504;43.334;21.918;2024-02-21T11:56:49;24.0;;;22.0;;
22673;SDS011;11504;43.334;21.918;2024-02-21T12:01:25;24.0;;;22.0;;
22673;SDS011;11504;43.334;21.918;2024-02-21T12:06:02;24.0;;;22.0;;
22673;SDS011;11504;43.334;21.918;2024-02-21T12:10:39;22.0;;;21.0;;
22673;SDS011;11504;43.334;21.918;2024-02-21T12:15:19;22.0;;;21.0;;
22673;SDS011;11504;43.334;21.918;2024-02-21T12:19:57;24.0;;;22.0;;
22673;SDS011;11504;43.334;21.918;2024-02-21T12:24:33;24.0;;;22.0;;
22673;SDS011;11504;43.334;21.918;2024-02-21T12:29:09;26.0;;;24.0;;
22673;SDS011;11504;43.334;21.918;2024-02-21T12:33:45;26.0;;;24.0;;
22673;SDS011;11504;43.334;21.918;2024-02-21T12:38:21;27.0;;;25.0;;
22673;SDS011;11504;43.334;21.918;2024-02-21T12:42:59;27.0;;;25.0;;
22673;SDS011;11504;43.334;21.918;2024-02-21T12:47:36;28.0;;;26.0;;
22673;SDS011;11504;43.334;21.918;2024-02-21T12:52:12;28.0;;;26.0;;
22673;SDS011;11504;43.334;21.918;2024-02-21T12:56:49;26.0;;;24.0;;
22673;SDS011;11504;43.334;21.918;2024-02-21T13:01:25;26.0;;;24.0;;
22673;SDS011;11504;43.334;21.918;2024-02-21T13:06:02;26.0;;;24.0;;
22673;SDS011;11504;43.334;21.918;2024-02-21T13:10:40;24.0;;;22.0;;
22673;SDS011;11504;43.334;21.918;2024-02-21T13:15:16;24.0;;;22.0;;
22673;SDS011;11504;43.334;21.918;2024-02-21T13:19:53;24.0;;;22.0;;
22673;SDS011;11504;43.334;21.918;2024-02-21T13:24:30;24.0;;;22.0;;
22673;SDS011;11504;43.334;21.918;2024-02-21T13:29:06;23.0;;;21.0;;
22673;SDS011;11504;43.334;21.918;2024-02-21T13:33:42;23.0;;;21.0;;
22673;SDS011;11504;43.334;21.918;2024-02-21T13:38:18;25.0;;;24.0;;
22673;SDS011;11504;43.334;21.918;2024-02-21T13:42:54;25.0;;;24.0;;
22673;SDS011;11504;43.334;21.918;2024-02-21T13:47:31;27.0;;;26.0;;
22673;SDS011;11504;43.334;21.918;2024-02-21T13:52:07;27.0;;;26.0;;
22673;SDS011;11504;43.334;21.918;2024-02-21T13:56:43;26.0;;;24.0;;
22673;SDS011;11504;43.334;21.918;2024-02-21T14:01:19;26.0;;;24.0;;
22673;SDS011;11504;43.334;21.918;2024-02-21T14:05:55;26.0;;;24.0;;
22673;SDS011;11504;43.334;21.918;2024-02-21T14:10:31;24.0;;;22.0;;
22673;SDS011;11504;43.334;21.918;2024-02-21T14:15:08;24.0;;;22.0;;
22673;SDS011;11504;43.334;21.918;2024-02-21T14:19:45;18.0;;;16.0;;
22673;SDS011;11504;43.334;21.918;2024-02-21T14:24:22;18.0;;;16.0;;
22673;SDS011;11504;43.334;21.918;2024-02-21T14:28:58;11.0;;;10.0;;
22673;SDS011;11504;43.334;21.918;2024-02-21T14:33:35;11.0;;;10.0;;
22673;SDS011;11504;43.334;21.918;2024-02-21T14:38:12;13.0;;;12.0;;
22673;SDS011;11504;43.334;21.918;2024-02-21T14:42:49;13.0;;;12.0;;
22673;SDS011;11504;43.334;21.918;2024-02-21T14:47:25;15.0;;;14.0;;
22673;SDS011;11504;43.334;21.918;2024-02-21T14:52:01;15.0;;;14.0;;
22673;SDS011;11504;43.334;21.918;2024-02-21T14:56:37;18.0;;;16.0;;
22673;SDS011;11504;43.334;21.918;2024-02-21T15:01:14;18.0;;;16.0;;
22673;SDS011;11504;43.334;21.918;2024-02-21T15:05:51;18.0;;;16.0;;
22673;SDS011;11504;43.334;21.918;2024-02-21T15:10:27;21.0;;;18.0;;
22673;SDS011;11504;43.334;21.918;2024-02-21T15:15:04;21.0;;;18.0;;
22673;SDS011;11504;43.334;21.918;2024-02-21T15:19:44;21.0;;;19.0;;
22673;SDS011;11504;43.334;21.918;2024-02-21T15:24:20;21.0;;;19.0;;
22673;SDS011;11504;43.334;21.918;2024-02-21T15:28:57;21.0;;;20.0;;
22673;SDS011;11504;43.334;21.918;2024-02-21T15:33:33;21.0;;;20.0;;
22673;SDS011;11504;43.334;21.918;2024-02-21T15:38:10;22.0;;;20.0;;
22673;SDS011;11504;43.334;21.918;2024-02-21T15:42:46;22.0;;;20.0;;
22673;SDS011;11504;43.334;21.918;2024-02-21T15:47:23;22.0;;;21.0;;
22673;SDS011;11504;43.334;21.918;2024-02-21T15:51:59;22.0;;;21.0;;
22673;SDS011;11504;43.334;21.918;2024-02-21T15:56:35;22.0;;;21.0;;
22673;SDS011;11504;43.334;21.918;2024-02-21T16:01:12;24.0;;;22.0;;
22673;SDS011;11504;43.334;21.918;2024-02-21T16:05:48;24.0;;;22.0;;
22673;SDS011;11504;43.334;21.918;2024-02-21T16:10:24;25.0;;;24.0;;
22673;SDS011;11504;43.334;21.918;2024-02-21T16:15:00;25.0;;;24.0;;
22673;SDS011;11504;43.334;21.918;2024-02-21T16:19:36;30.0;;;28.0;;
22673;SDS011;11504;43.334;21.918;2024-02-21T16:24:11;30.0;;;28.0;;
22673;SDS011;11504;43.334;21.918;2024-02-21T16:28:47;34.0;;;32.0;;
22673;SDS011;11504;43.334;21.918;2024-02-21T16:33:23;34.0;;;32.0;;
22673;SDS011;11504;43.334;21.918;2024-02-21T16:38:00;34.0;;;32.0;;
22673;SDS011;11504;43.334;21.918;2024-02-21T16:42:36;34.0;;;32.0;;
22673;SDS011;11504;43.334;21.918;2024-02-21T16:47:12;35.0;;;31.0;;
22673;SDS011;11504;43.334;21.918;2024-02-21T16:51:48;35.0;;;31.0;;
22673;SDS011;11504;43.334;21.918;2024-02-21T16:56:24;35.0;;;31.0;;
22673;SDS011;11504;43.334;21.918;2024-02-21T17:01:00;37.0;;;32.0;;
22673;SDS011;11504;43.334;21.918;2024-02-21T17:05:36;37.0;;;32.0;;
22673;SDS011;11504;43.334;21.918;2024-02-21T17:10:13;39.0;;;33.0;;
22673;SDS011;11504;43.334;21.918;2024-02-21T17:14:49;39.0;;;33.0;;
22673;SDS011;11504;43.334;21.918;2024-02-21T17:19:26;50.0;;;41.0;;
22673;SDS011;11504;43.334;21.918;2024-02-21T17:24:02;50.0;;;41.0;;
22673;SDS011;11504;43.334;21.918;2024-02-21T17:28:41;60.0;;;49.0;;
22673;SDS011;11504;43.334;21.918;2024-02-21T17:33:17;60.0;;;49.0;;
22673;SDS011;11504;43.334;21.918;2024-02-21T17:37:53;70.0;;;61.0;;
22673;SDS011;11504;43.334;21.918;2024-02-21T17:42:29;70.0;;;61.0;;
22673;SDS011;11504;43.334;21.918;2024-02-21T17:47:05;80.0;;;73.0;;
22673;SDS011;11504;43.334;21.918;2024-02-21T17:51:41;80.0;;;73.0;;
22673;SDS011;11504;43.334;21.918;2024-02-21T17:56:18;80.0;;;73.0;;
22673;SDS011;11504;43.334;21.918;2024-02-21T18:00:54;86.0;;;79.0;;
22673;SDS011;11504;43.334;21.918;2024-02-21T18:05:30;86.0;;;79.0;;
22673;SDS011;11504;43.334;21.918;2024-02-21T18:10:06;92.0;;;85.0;;
22673;SDS011;11504;43.334;21.918;2024-02-21T18:14:44;92.0;;;85.0;;
22673;SDS011;11504;43.334;21.918;2024-02-21T18:19:21;84.0;;;78.0;;
22673;SDS011;11504;43.334;21.918;2024-02-21T18:23:57;84.0;;;78.0;;
22673;SDS011;11504;43.334;21.918;2024-02-21T18:28:33;77.0;;;70.0;;
22673;SDS011;11504;43.334;21.918;2024-02-21T18:33:09;77.0;;;70.0;;
22673;SDS011;11504;43.334;21.918;2024-02-21T18:37:45;76.0;;;68.0;;
22673;SDS011;11504;43.334;21.918;2024-02-21T18:42:21;76.0;;;68.0;;
22673;SDS011;11504;43.334;21.918;2024-02-21T18:46:57;76.0;;;67.0;;
22673;SDS011;11504;43.334;21.918;2024-02-21T18:51:33;76.0;;;67.0;;
22673;SDS011;11504;43.334;21.918;2024-02-21T18:56:09;76.0;;;67.0;;
22673;SDS011;11504;43.334;21.918;2024-02-21T19:00:45;76.0;;;70.0;;
22673;SDS011;11504;43.334;21.918;2024-02-21T19:05:21;76.0;;;70.0;;
22673;SDS011;11504;43.334;21.918;2024-02-21T19:09:57;77.0;;;72.0;;
22673;SDS011;11504;43.334;21.918;2024-02-21T19:14:33;77.0;;;72.0;;
22673;SDS011;11504;43.334;21.918;2024-02-21T19:19:09;114.0;;;108.0;;
22673;SDS011;11504;43.334;21.918;2024-02-21T19:23:45;114.0;;;108.0;;
22673;SDS011;11504;43.334;21.918;2024-02-21T19:28:21;150.0;;;143.0;;
22673;SDS011;11504;43.334;21.918;2024-02-21T19:32:58;150.0;;;143.0;;
22673;SDS011;11504;43.334;21.918;2024-02-21T19:37:34;136.0;;;130.0;;
22673;SDS011;11504;43.334;21.918;2024-02-21T19:42:10;136.0;;;130.0;;
22673;SDS011;11504;43.334;21.918;2024-02-21T19:46:46;136.0;;;130.0;;
22673;SDS011;11504;43.334;21.918;2024-02-21T19:51:22;122.0;;;116.0;;
22673;SDS011;11504;43.334;21.918;2024-02-21T19:55:59;122.0;;;116.0;;
22673;SDS011;11504;43.334;21.918;2024-02-21T20:00:36;96.0;;;92.0;;
22673;SDS011;11504;43.334;21.918;2024-02-21T20:05:12;96.0;;;92.0;;
22673;SDS011;11504;43.334;21.918;2024-02-21T20:09:49;71.0;;;68.0;;
22673;SDS011;11504;43.334;21.918;2024-02-21T20:14:25;71.0;;;68.0;;
22673;SDS011;11504;43.334;21.918;2024-02-21T20:19:02;72.0;;;66.0;;
22673;SDS011;11504;43.334;21.918;2024-02-21T20:23:38;72.0;;;66.0;;
22673;SDS011;11504;43.334;21.918;2024-02-21T20:28:15;72.0;;;63.0;;
22673;SDS011;11504;43.334;21.918;2024-02-21T20:32:51;72.0;;;63.0;;
22673;SDS011;11504;43.334;21.918;2024-02-21T20:37:27;60.0;;;54.0;;
22673;SDS011;11504;43.334;21.918;2024-02-21T20:42:03;60.0;;;54.0;;
22673;SDS011;11504;43.334;21.918;2024-02-21T20:46:40;60.0;;;54.0;;
22673;SDS011;11504;43.334;21.918;2024-02-21T20:51:17;47.0;;;44.0;;
22673;SDS011;11504;43.334;21.918;2024-02-21T20:55:53;47.0;;;44.0;;
22673;SDS011;11504;43.334;21.918;2024-02-21T21:00:29;70.0;;;62.0;;
22673;SDS011;11504;43.334;21.918;2024-02-21T21:05:05;70.0;;;62.0;;
22673;SDS011;11504;43.334;21.918;2024-02-21T21:09:42;92.0;;;80.0;;
22673;SDS011;11504;43.334;21.918;2024-02-21T21:14:18;92.0;;;80.0;;
22673;SDS011;11504;43.334;21.918;2024-02-21T21:18:54;102.0;;;92.0;;
22673;SDS011;11504;43.334;21.918;2024-02-21T21:23:31;102.0;;;92.0;;
22673;SDS011;11504;43.334;21.918;2024-02-21T21:28:06;112.0;;;103.0;;
22673;SDS011;11504;43.334;21.918;2024-02-21T21:32:42;112.0;;;103.0;;
22673;SDS011;11504;43.334;21.918;2024-02-21T21:37:18;110.0;;;100.0;;
22673;SDS011;11504;43.334;21.918;2024-02-21T21:41:54;110.0;;;100.0;;
22673;SDS011;11504;43.334;21.918;2024-02-21T21:46:30;110.0;;;100.0;;
22673;SDS011;11504;43.334;21.918;2024-02-21T21:51:06;107.0;;;98.0;;
22673;SDS011;11504;43.334;21.918;2024-02-21T21:55:43;107.0;;;98.0;;
22673;SDS011;11504;43.334;21.918;2024-02-21T22:00:19;91.0;;;83.0;;
22673;SDS011;11504;43.334;21.918;2024-02-21T22:04:56;91.0;;;83.0;;
22673;SDS011;11504;43.334;21.918;2024-02-21T22:09:32;75.0;;;68.0;;
22673;SDS011;11504;43.334;21.918;2024-02-21T22:14:08;75.0;;;68.0;;
22673;SDS011;11504;43.334;21.918;2024-02-21T22:18:45;59.0;;;54.0;;
22673;SDS011;11504;43.334;21.918;2024-02-21T22:23:21;59.0;;;54.0;;
22673;SDS011;11504;43.334;21.918;2024-02-21T22:27:57;43.0;;;40.0;;
22673;SDS011;11504;43.334;21.918;2024-02-21T22:32:33;43.0;;;40.0;;
22673;SDS011;11504;43.334;21.918;2024-02-21T22:37:09;41.0;;;38.0;;
22673;SDS011;11504;43.334;21.918;2024-02-21T22:41:45;41.0;;;38.0;;
22673;SDS011;11504;43.334;21.918;2024-02-21T22:46:22;41.0;;;38.0;;
22673;SDS011;11504;43.334;21.918;2024-02-21T22:50:59;39.0;;;37.0;;
22673;SDS011;11504;43.334;21.918;2024-02-21T22:55:35;39.0;;;37.0;;
22673;SDS011;11504;43.334;21.918;2024-02-21T23:00:11;48.0;;;45.0;;
22673;SDS011;11504;43.334;21.918;2024-02-21T23:04:51;48.0;;;45.0;;
22673;SDS011;11504;43.334;21.918;2024-02-21T23:09:28;56.0;;;53.0;;
22673;SDS011;11504;43.334;21.918;2024-02-21T23:14:04;56.0;;;53.0;;
22673;SDS011;11504;43.334;21.918;2024-02-21T23:18:40;42.0;;;38.0;;
22673;SDS011;11504;43.334;21.918;2024-02-21T23:23:16;42.0;;;38.0;;
22673;SDS011;11504;43.334;21.918;2024-02-21T23:27:53;29.0;;;24.0;;
22673;SDS011;11504;43.334;21.918;2024-02-21T23:32:29;29.0;;;24.0;;
22673;SDS011;11504;43.334;21.918;2024-02-21T23:37:05;28.0;;;24.0;;
22673;SDS011;11504;43.334;21.918;2024-02-21T23:41:42;28.0;;;24.0;;
22673;SDS011;11504;43.334;21.918;2024-02-21T23:46:18;28.0;;;24.0;;
22673;SDS011;11504;43.334;21.918;2024-02-21T23:50:55;26.0;;;25.0;;
22673;SDS011;11504;43.334;21.918;2024-02-21T23:55:31;26.0;;;25.0;;
